Parc national de Yoho, Colombie-Britannique

Conditions des dernières 24 heures

Date / Heure
(HAR)
Conditions Temp
(°C)
Humidité
(%)
Point de rosée
(°C)
Vent
(km/h)
Pression
(kPa)
Visibilité
(km)
01 juillet 2015
14:00 N.D. 18 56 9 E 10 102,1 N.D.
13:00 N.D. 19 57 10 ENE 11 102,0 N.D.
12:00 N.D. 17 72 12 O 2 102,1 N.D.
11:00 N.D. 15 82 12 SO 4 102,0 N.D.
10:00 N.D. 12 91 11 SO 5 102,0 N.D.
9:00 N.D. 11 93 10 ENE 3 102,1 N.D.
8:00 N.D. 10 98 10 SSO 2 102,1 N.D.
7:00 N.D. 9   98 9 SO 8 102,0 N.D.
6:00 N.D. 9   97 9 SE 3 101,9 N.D.
5:00 N.D. 10 98 9 SO 7 101,9 N.D.
4:00 N.D. 10 97 9 E 2 101,9 N.D.
3:00 N.D. 10 97 10 O 3 101,9 N.D.
2:00 N.D. 10 97 10 ESE 3 101,9 N.D.
1:00 N.D. 10 97 10 ONO 6 102,0 N.D.
0:00 N.D. 10 95 9 OSO 22 rafale 31 102,1 N.D.
30 juin 2015
23:00 N.D. 14 82 11 calme 101,7 N.D.
22:00 N.D. 15 84 12 calme 101,7 N.D.
21:00 N.D. 15 81 12 calme 101,7 N.D.
20:00 N.D. 16 75 12 SO 10 101,7 N.D.
19:00 N.D. 18 69 12 OSO 10 101,7 N.D.
18:00 N.D. 19 59 11 OSO 19 rafale 27 101,7 N.D.
17:00 N.D. 18 63 11 OSO 22 101,8 N.D.
16:00 N.D. 18 61 11 OSO 18 101,8 N.D.
15:00 N.D. 20   53 10 OSO 24 101,7 N.D.
14:00 N.D. 19 60 11 OSO 22 rafale 31 101,8 N.D.
N.D. non disponible
↑ température la plus haute
↓ température la plus basse

Si vous désirez plus de données historiques sur les conditions météo, s.v.p. visitez Données climatologiques en ligne.

Ce que nous faisons

Date de modification :